Weather at Edmonton / Lechelt Field

Public forecast

Using degrees Celsius for public forecast. Weather courtesy of forecast.io.

Closest aviation weather report (METAR) to Edmonton / Lechelt Field

Closest report is Edmonton (CFB Namao) Heliport, 18.3 nm (33.9 km) WNW. Retrieved 2020/09/27 04:00 UTC (19 minutes ago):

CYED 270400Z AUTO 28005KT 9SM CLR 09/M01 A2982 RMK SLP113

Closest aviation forecast (TAF) to Edmonton / Lechelt Field

Forecast is more than 12 hours old.

Closest forecast is Edmonton (CFB Namao) Heliport, 18.3 nm (33.9 km) WNW. Retrieved 2020-09-26 00:33 UTC (1 day ago):

TAF TAF CYED 252330Z 2600/2612 22008KT P6SM FEW060 BKN180 FM260200 28012G22KT P6SM BKN060 TEMPO 2606/2611 P6SM -SHRA BKN020 OVC060 FM261100 30010KT P6SM FEW060 RMK FCST BASED ON AUTO OBS NXT FCST BY 260600Z